Time;durP1;ratioP1;P1;durP2;ratioP2;P2;SDS_P1;SDS_P2;PMS_P1;PMS_P2;Temp;Humidity;BMP_temperature;BMP_pressure;BME280_temperature;BME280_humidity;BME280_pressure;Samples;Min_cycle;Max_cycle;Signal;HPM_P1;HPM_P2
2021/03/09 00:00:20;;;;;;;31.90;16.27;;;2.90;99.90;;;;;;5069811;28;20445;-52
2021/03/09 00:02:47;;;;;;;29.20;14.70;;;2.80;99.90;;;;;;5066915;28;20829;-52
2021/03/09 00:05:14;;;;;;;32.37;15.83;;;2.80;99.90;;;;;;5069802;28;20474;-52
2021/03/09 00:07:42;;;;;;;33.67;15.23;;;2.90;99.90;;;;;;5070456;28;20462;-51
2021/03/09 00:10:09;;;;;;;28.23;15.70;;;2.90;99.90;;;;;;5070648;28;20489;-51
2021/03/09 00:12:36;;;;;;;24.63;13.50;;;2.80;99.90;;;;;;5068048;28;20460;-51
2021/03/09 00:15:04;;;;;;;28.27;14.90;;;2.80;99.90;;;;;;5069253;28;20470;-52
2021/03/09 00:17:31;;;;;;;30.43;14.10;;;2.80;99.90;;;;;;5071775;28;20819;-52
2021/03/09 00:19:57;;;;;;;25.50;13.93;;;2.80;99.90;;;;;;5074274;28;20448;-52
2021/03/09 00:22:25;;;;;;;25.17;15.00;;;2.70;99.90;;;;;;5074653;28;20454;-51
2021/03/09 00:24:52;;;;;;;31.20;15.20;;;2.70;99.90;;;;;;5074124;28;20447;-52
2021/03/09 00:27:18;;;;;;;26.80;14.70;;;2.60;99.90;;;;;;5073950;28;20467;-51
2021/03/09 00:29:45;;;;;;;26.53;14.77;;;2.50;99.90;;;;;;5057930;28;20523;-52
2021/03/09 00:32:11;;;;;;;28.77;15.00;;;2.50;99.90;;;;;;5074261;28;20454;-52
2021/03/09 00:34:38;;;;;;;27.00;15.33;;;2.50;99.90;;;;;;5073851;28;20454;-51
2021/03/09 00:37:06;;;;;;;28.87;15.57;;;2.50;99.90;;;;;;5073972;28;20462;-51
2021/03/09 00:39:33;;;;;;;28.60;15.83;;;2.50;99.90;;;;;;5073355;28;20454;-52
2021/03/09 00:42:00;;;;;;;28.40;14.40;;;2.60;99.90;;;;;;5073949;28;20512;-52
2021/03/09 00:44:27;;;;;;;32.50;15.60;;;2.70;99.90;;;;;;5073598;28;20457;-52
2021/03/09 00:46:53;;;;;;;30.67;16.90;;;2.60;99.90;;;;;;5065162;28;20470;-51
2021/03/09 00:49:20;;;;;;;31.00;16.57;;;2.50;99.90;;;;;;5054217;28;20481;-52
2021/03/09 00:51:47;;;;;;;31.93;16.60;;;2.40;99.90;;;;;;5073094;28;21231;-51
2021/03/09 00:54:13;;;;;;;32.40;17.30;;;2.30;99.90;;;;;;5073415;28;20480;-51
2021/03/09 00:56:41;;;;;;;30.53;16.43;;;2.30;99.90;;;;;;5073459;28;20467;-52
2021/03/09 00:59:10;;;;;;;31.27;16.20;;;2.10;99.90;;;;;;5074075;28;20527;-52
2021/03/09 01:01:37;;;;;;;26.00;14.80;;;2.10;99.90;;;;;;5073601;28;20445;-52
2021/03/09 01:04:04;;;;;;;28.53;14.77;;;2.20;99.90;;;;;;5073705;28;20449;-52
2021/03/09 01:06:30;;;;;;;28.30;15.80;;;2.10;99.90;;;;;;5073413;28;20474;-51
2021/03/09 01:08:57;;;;;;;31.67;16.40;;;2.10;99.90;;;;;;5073688;28;20453;-52
2021/03/09 01:11:23;;;;;;;30.50;15.90;;;2.00;99.90;;;;;;5073540;28;20493;-52
2021/03/09 01:13:51;;;;;;;29.93;15.37;;;2.20;99.90;;;;;;5073655;28;20449;-52
2021/03/09 01:16:17;;;;;;;25.83;14.53;;;2.30;99.90;;;;;;5072972;28;20901;-52
2021/03/09 01:18:44;;;;;;;27.60;14.90;;;2.30;99.90;;;;;;5073251;28;20454;-52
2021/03/09 01:21:10;;;;;;;30.20;15.30;;;2.30;99.90;;;;;;5072843;28;20443;-51
2021/03/09 01:23:37;;;;;;;27.23;14.83;;;2.30;99.90;;;;;;5071957;28;21049;-52
2021/03/09 01:26:04;;;;;;;29.30;14.73;;;2.20;99.90;;;;;;5072840;28;20465;-52
2021/03/09 01:28:30;;;;;;;26.87;15.27;;;2.20;99.90;;;;;;5073223;28;20450;-52
2021/03/09 01:30:58;;;;;;;24.27;13.47;;;2.20;99.90;;;;;;5073088;28;20474;-52
2021/03/09 01:33:24;;;;;;;28.80;15.10;;;2.20;99.90;;;;;;5072633;28;20862;-52
2021/03/09 01:35:51;;;;;;;30.70;15.77;;;2.20;99.90;;;;;;5072872;28;20488;-52
2021/03/09 01:38:17;;;;;;;33.63;16.53;;;2.10;99.90;;;;;;5072365;28;20469;-53
2021/03/09 01:40:44;;;;;;;27.47;14.70;;;2.20;99.90;;;;;;5072882;28;20451;-52
2021/03/09 01:43:10;;;;;;;25.80;14.60;;;2.20;99.90;;;;;;5072720;28;20469;-52
2021/03/09 01:45:37;;;;;;;26.80;14.63;;;2.20;99.90;;;;;;5072598;28;20461;-52
2021/03/09 01:48:06;;;;;;;28.43;15.03;;;2.10;99.90;;;;;;5073234;28;20504;-51
2021/03/09 01:50:35;;;;;;;24.97;14.10;;;2.10;99.90;;;;;;5073117;28;20482;-51
2021/03/09 01:53:04;;;;;;;27.43;15.03;;;2.10;99.90;;;;;;5072529;28;20459;-51
2021/03/09 01:55:31;;;;;;;30.20;15.87;;;2.00;99.90;;;;;;5072644;28;20471;-52
2021/03/09 01:57:58;;;;;;;27.90;14.47;;;2.10;99.90;;;;;;5072594;28;20450;-51
2021/03/09 02:00:25;;;;;;;27.13;15.23;;;2.00;99.90;;;;;;5072405;28;20446;-52
2021/03/09 02:02:51;;;;;;;28.73;15.77;;;1.90;99.90;;;;;;5072672;28;20461;-52
2021/03/09 02:05:19;;;;;;;28.40;15.13;;;1.80;99.90;;;;;;5071810;28;20471;-51
2021/03/09 02:07:45;;;;;;;31.03;15.90;;;1.70;99.90;;;;;;5072562;28;20449;-51
2021/03/09 02:10:15;;;;;;;29.93;15.60;;;1.80;99.90;;;;;;5071548;28;21007;-52
2021/03/09 02:12:53;;;;;;;34.77;16.07;;;1.80;99.90;;;;;;5072312;28;20832;-52
2021/03/09 02:15:28;;;;;;;28.40;16.10;;;1.80;99.90;;;;;;5071493;28;20474;-51
2021/03/09 02:18:01;;;;;;;26.37;14.80;;;1.80;99.90;;;;;;5072791;28;20476;-52
2021/03/09 02:21:10;;;;;;;27.80;14.90;;;1.80;99.90;;;;;;5071954;28;20485;-51
2021/03/09 02:24:05;;;;;;;27.37;14.70;;;1.80;99.90;;;;;;5041501;28;20450;-52
2021/03/09 02:26:51;;;;;;;28.63;14.97;;;1.80;99.90;;;;;;5063728;28;20998;-52
2021/03/09 02:29:41;;;;;;;31.80;15.70;;;1.80;99.90;;;;;;5072573;28;20500;-52
2021/03/09 02:32:14;;;;;;;28.70;14.83;;;1.80;99.90;;;;;;5072044;28;20505;-51
2021/03/09 02:34:46;;;;;;;31.87;15.53;;;1.70;99.90;;;;;;5071335;28;20451;-52
2021/03/09 02:37:15;;;;;;;29.67;15.70;;;1.70;99.90;;;;;;5070433;28;20469;-52
2021/03/09 02:39:45;;;;;;;33.73;15.70;;;1.60;99.90;;;;;;5069157;28;20874;-51
2021/03/09 02:42:17;;;;;;;25.90;13.90;;;1.70;99.90;;;;;;5071575;28;20449;-52
2021/03/09 02:44:46;;;;;;;32.60;16.20;;;1.70;99.90;;;;;;5071260;28;20458;-52
2021/03/09 02:47:15;;;;;;;30.97;15.67;;;1.60;99.90;;;;;;5071030;28;20484;-51
2021/03/09 02:49:44;;;;;;;32.07;16.30;;;1.70;99.90;;;;;;5071691;28;20455;-52
2021/03/09 02:52:16;;;;;;;29.30;15.10;;;1.60;99.90;;;;;;5071220;28;20488;-52
2021/03/09 02:54:44;;;;;;;31.80;15.70;;;1.40;99.90;;;;;;5070719;28;20458;-51
2021/03/09 02:57:12;;;;;;;30.10;15.33;;;1.40;99.90;;;;;;5071282;28;21131;-52
2021/03/09 02:59:40;;;;;;;33.80;16.57;;;1.50;99.90;;;;;;5071326;28;20454;-51
2021/03/09 03:02:08;;;;;;;31.93;16.63;;;1.50;99.90;;;;;;5071288;28;20492;-52
2021/03/09 03:04:36;;;;;;;30.13;14.70;;;1.50;99.90;;;;;;5071151;28;20461;-51
2021/03/09 03:07:04;;;;;;;27.60;15.07;;;1.40;99.90;;;;;;5070995;28;20466;-51
2021/03/09 03:09:31;;;;;;;29.63;16.10;;;1.30;99.90;;;;;;5071113;28;20439;-52
2021/03/09 03:11:58;;;;;;;27.57;15.90;;;1.40;99.90;;;;;;5071464;28;20489;-52
2021/03/09 03:14:27;;;;;;;30.03;16.20;;;1.20;99.90;;;;;;5070991;28;20450;-51
2021/03/09 03:16:54;;;;;;;27.87;15.27;;;1.20;99.90;;;;;;5070630;28;20470;-51
2021/03/09 03:19:21;;;;;;;30.53;14.93;;;1.30;99.90;;;;;;5070600;28;20460;-51
2021/03/09 03:21:49;;;;;;;32.03;14.87;;;1.20;99.90;;;;;;5071234;28;20496;-51
2021/03/09 03:24:17;;;;;;;26.40;14.67;;;1.10;99.90;;;;;;5070432;28;20451;-52
2021/03/09 03:26:46;;;;;;;27.70;15.40;;;1.10;99.90;;;;;;5070429;28;20516;-52
2021/03/09 03:29:14;;;;;;;27.60;14.60;;;1.20;99.90;;;;;;5071045;28;20454;-52
2021/03/09 03:31:41;;;;;;;33.47;15.77;;;1.20;99.90;;;;;;5070817;28;21011;-51
2021/03/09 03:34:11;;;;;;;30.60;15.30;;;1.00;99.90;;;;;;5070617;28;20458;-52
2021/03/09 03:36:37;;;;;;;27.80;14.17;;;1.10;99.90;;;;;;5062753;28;20469;-52
2021/03/09 03:39:06;;;;;;;28.43;14.17;;;1.10;99.90;;;;;;5070859;28;20448;-52
2021/03/09 03:41:33;;;;;;;32.90;15.30;;;0.90;99.90;;;;;;5070791;28;20461;-52
2021/03/09 03:43:59;;;;;;;25.20;14.13;;;0.80;99.90;;;;;;5070524;28;20457;-51
2021/03/09 03:46:26;;;;;;;34.27;15.67;;;0.70;99.90;;;;;;5069872;28;20849;-51
2021/03/09 03:48:52;;;;;;;25.30;14.20;;;0.70;99.90;;;;;;5070895;28;20461;-52
2021/03/09 03:51:22;;;;;;;27.60;13.93;;;0.80;99.90;;;;;;5071618;28;20536;-51
2021/03/09 03:53:58;;;;;;;31.20;16.27;;;0.80;99.90;;;;;;5070951;28;20461;-51
2021/03/09 03:56:35;;;;;;;28.67;14.10;;;0.90;99.90;;;;;;5069955;28;20471;-51
2021/03/09 03:59:13;;;;;;;27.67;13.90;;;0.90;99.90;;;;;;5070876;28;20538;-51
2021/03/09 04:01:40;;;;;;;33.13;14.47;;;0.90;99.90;;;;;;5070189;28;20439;-52
2021/03/09 04:04:12;;;;;;;29.87;14.07;;;0.70;99.90;;;;;;5070072;28;20476;-51
2021/03/09 04:06:42;;;;;;;33.03;14.90;;;0.80;99.90;;;;;;5070415;28;20480;-51
2021/03/09 04:09:12;;;;;;;29.90;14.77;;;0.80;99.90;;;;;;5070626;28;20461;-51
2021/03/09 04:11:40;;;;;;;30.87;14.60;;;0.70;99.90;;;;;;5070546;28;21031;-52
2021/03/09 04:14:09;;;;;;;31.30;14.37;;;0.70;99.90;;;;;;5069806;28;20480;-51
2021/03/09 04:16:37;;;;;;;31.20;14.93;;;0.60;99.90;;;;;;5070075;28;20469;-51
2021/03/09 04:19:06;;;;;;;27.93;14.90;;;0.60;99.90;;;;;;5069644;28;20465;-52
2021/03/09 04:21:34;;;;;;;27.63;14.53;;;0.40;99.90;;;;;;5070338;28;20448;-52
2021/03/09 04:24:02;;;;;;;29.03;15.10;;;0.50;99.90;;;;;;5070021;28;20480;-52
2021/03/09 04:26:29;;;;;;;25.80;14.40;;;0.60;99.90;;;;;;5069135;28;20465;-52
2021/03/09 04:28:57;;;;;;;28.73;14.97;;;0.60;99.90;;;;;;5070159;28;20975;-52
2021/03/09 04:31:25;;;;;;;28.83;14.43;;;0.60;99.90;;;;;;5070230;28;20483;-51
2021/03/09 04:33:52;;;;;;;30.10;15.93;;;0.60;99.90;;;;;;5070186;28;20465;-51
2021/03/09 04:36:20;;;;;;;28.30;14.37;;;0.70;99.90;;;;;;5069637;28;20519;-52
2021/03/09 04:38:47;;;;;;;28.20;15.13;;;0.70;99.90;;;;;;5067325;28;20453;-52
2021/03/09 04:41:14;;;;;;;28.50;15.67;;;0.70;99.90;;;;;;5069908;28;20531;-52
2021/03/09 04:43:41;;;;;;;34.83;15.73;;;0.50;99.90;;;;;;5070420;28;20829;-51
2021/03/09 04:46:09;;;;;;;31.13;14.33;;;0.50;99.90;;;;;;5069667;28;20481;-51
2021/03/09 04:48:37;;;;;;;32.93;15.33;;;0.60;99.90;;;;;;5070169;28;20449;-50
2021/03/09 04:51:08;;;;;;;29.30;15.43;;;0.70;99.90;;;;;;5069711;28;20478;-51
2021/03/09 04:53:35;;;;;;;31.23;15.40;;;0.70;99.90;;;;;;5070038;28;20453;-52
2021/03/09 04:56:03;;;;;;;33.83;16.27;;;0.70;99.90;;;;;;5069573;28;20469;-51
2021/03/09 04:58:30;;;;;;;30.87;15.97;;;0.80;99.90;;;;;;5070362;28;20479;-52
2021/03/09 05:00:57;;;;;;;32.00;15.77;;;0.70;99.90;;;;;;5069517;28;20453;-51
2021/03/09 05:03:25;;;;;;;35.23;16.70;;;0.40;99.90;;;;;;5051241;28;20459;-52
2021/03/09 05:05:52;;;;;;;32.77;15.10;;;0.40;99.90;;;;;;5053581;28;20473;-52
2021/03/09 05:08:19;;;;;;;28.90;15.00;;;0.50;99.90;;;;;;5073625;28;20472;-51
2021/03/09 05:10:46;;;;;;;29.80;15.90;;;0.60;99.90;;;;;;5073782;28;20997;-51
2021/03/09 05:13:12;;;;;;;34.10;16.60;;;0.70;99.90;;;;;;5073981;28;20453;-51
2021/03/09 05:15:39;;;;;;;29.23;15.63;;;0.40;99.90;;;;;;5070166;28;21002;-51
2021/03/09 05:18:05;;;;;;;32.63;15.87;;;0.50;99.90;;;;;;5072149;28;20440;-51
2021/03/09 05:20:33;;;;;;;29.03;15.43;;;0.60;99.90;;;;;;5073522;28;20454;-51
2021/03/09 05:22:59;;;;;;;29.23;16.30;;;0.60;99.90;;;;;;5073755;28;20460;-51
2021/03/09 05:25:26;;;;;;;30.00;14.67;;;0.60;99.90;;;;;;5073415;28;20461;-51
2021/03/09 05:27:53;;;;;;;32.10;16.53;;;0.60;99.90;;;;;;5073380;28;20458;-52
2021/03/09 05:30:21;;;;;;;35.30;17.60;;;0.60;99.90;;;;;;5072458;28;20967;-52
2021/03/09 05:32:49;;;;;;;36.60;18.60;;;0.60;99.90;;;;;;5073262;28;20472;-51
2021/03/09 05:35:17;;;;;;;37.13;17.63;;;0.60;99.90;;;;;;5072747;28;20472;-51
2021/03/09 05:37:46;;;;;;;37.73;18.50;;;0.50;99.90;;;;;;5073169;28;20449;-51
2021/03/09 05:40:13;;;;;;;32.70;17.67;;;0.40;99.90;;;;;;5073194;28;20455;-51
2021/03/09 05:42:40;;;;;;;38.10;17.60;;;0.40;99.90;;;;;;5073324;28;20867;-52
2021/03/09 05:45:08;;;;;;;37.27;17.87;;;0.40;99.90;;;;;;5072893;28;20465;-50
2021/03/09 05:47:35;;;;;;;32.23;16.60;;;0.40;99.90;;;;;;5067181;28;20822;-52
2021/03/09 05:50:02;;;;;;;30.33;16.17;;;0.40;99.90;;;;;;5057692;28;20472;-51
2021/03/09 05:52:30;;;;;;;26.60;13.93;;;0.40;99.90;;;;;;5073133;28;20488;-51
2021/03/09 05:54:58;;;;;;;31.43;15.07;;;0.40;99.90;;;;;;5068366;28;20473;-51
2021/03/09 05:57:24;;;;;;;34.63;15.13;;;0.30;99.90;;;;;;5063039;28;20447;-51
2021/03/09 05:59:51;;;;;;;30.53;15.33;;;0.40;99.90;;;;;;5073255;22;20502;-49
2021/03/09 06:02:18;;;;;;;34.93;15.20;;;0.50;99.90;;;;;;5051671;28;20443;-49
2021/03/09 06:04:44;;;;;;;26.57;13.60;;;0.50;99.90;;;;;;5042892;28;20875;-50
2021/03/09 06:07:11;;;;;;;28.37;14.30;;;0.50;99.90;;;;;;5042481;28;20451;-48
2021/03/09 06:09:42;;;;;;;29.00;14.30;;;0.60;99.90;;;;;;5033103;28;20468;-48
2021/03/09 06:12:15;;;;;;;31.10;15.80;;;0.60;99.90;;;;;;5051335;28;20558;-49
2021/03/09 06:14:43;;;;;;;28.67;15.70;;;0.70;99.90;;;;;;5050732;28;20821;-49
2021/03/09 06:17:15;;;;;;;31.17;15.07;;;0.70;99.90;;;;;;5052476;28;20481;-49
2021/03/09 06:19:47;;;;;;;35.50;14.93;;;0.80;99.90;;;;;;5052069;28;20498;-49
2021/03/09 06:22:15;;;;;;;30.67;15.07;;;0.80;99.90;;;;;;5052314;28;20823;-49
2021/03/09 06:24:43;;;;;;;33.87;15.20;;;0.90;99.90;;;;;;5051886;28;20453;-49
2021/03/09 06:27:27;;;;;;;30.93;15.90;;;1.10;99.90;;;;;;5046675;28;20485;-49
2021/03/09 06:29:55;;;;;;;31.23;15.03;;;1.20;99.90;;;;;;5051669;28;20471;-50
2021/03/09 06:32:22;;;;;;;33.80;16.73;;;1.30;99.90;;;;;;5044339;28;20496;-49
2021/03/09 06:34:49;;;;;;;31.13;15.53;;;1.40;99.90;;;;;;5047078;28;20453;-49
2021/03/09 06:37:18;;;;;;;31.50;15.13;;;1.40;99.90;;;;;;5043654;28;20447;-49
2021/03/09 06:39:54;;;;;;;27.10;15.10;;;1.50;99.90;;;;;;5051705;28;20474;-49
2021/03/09 06:42:23;;;;;;;34.37;17.13;;;1.50;99.90;;;;;;5052019;28;20498;-49
2021/03/09 06:44:56;;;;;;;35.23;16.27;;;1.20;99.90;;;;;;5046755;28;20462;-49
2021/03/09 06:47:40;;;;;;;32.83;16.00;;;1.10;99.90;;;;;;5051388;28;20508;-49
2021/03/09 06:50:10;;;;;;;34.10;15.20;;;1.20;99.90;;;;;;5050820;28;20475;-49
2021/03/09 06:52:36;;;;;;;33.67;15.60;;;1.40;99.90;;;;;;5050233;28;20490;-48
2021/03/09 06:55:05;;;;;;;31.10;16.03;;;1.60;99.90;;;;;;5047810;28;20451;-50
2021/03/09 06:57:31;;;;;;;27.17;14.90;;;1.80;99.90;;;;;;5050434;28;20458;-49
2021/03/09 06:59:59;;;;;;;29.43;14.70;;;2.20;99.90;;;;;;5050763;28;20478;-49
2021/03/09 07:02:27;;;;;;;30.53;15.80;;;2.50;99.90;;;;;;5043872;28;20448;-49
2021/03/09 07:04:54;;;;;;;26.70;14.83;;;3.00;99.90;;;;;;5049599;28;20459;-49
2021/03/09 07:07:29;;;;;;;28.87;15.07;;;3.20;99.90;;;;;;5050298;28;20467;-49
2021/03/09 07:09:58;;;;;;;27.80;14.00;;;3.30;99.90;;;;;;5050912;28;20552;-49
2021/03/09 07:12:27;;;;;;;25.97;14.40;;;3.20;99.90;;;;;;5050216;28;20502;-49
2021/03/09 07:14:54;;;;;;;26.87;15.40;;;3.40;99.90;;;;;;5051045;28;20452;-50
2021/03/09 07:17:23;;;;;;;26.53;14.30;;;3.60;99.90;;;;;;5046365;28;20445;-49
2021/03/09 07:19:50;;;;;;;31.30;15.17;;;3.40;99.90;;;;;;5049090;28;20467;-49
2021/03/09 07:22:19;;;;;;;28.97;14.93;;;3.30;99.90;;;;;;5050801;28;20505;-49
2021/03/09 07:24:59;;;;;;;26.87;14.03;;;3.50;99.90;;;;;;5050658;28;20463;-49
2021/03/09 07:27:34;;;;;;;24.50;14.33;;;3.50;99.90;;;;;;5051614;28;20559;-49
2021/03/09 07:30:01;;;;;;;27.27;14.10;;;3.50;99.90;;;;;;5047570;28;20555;-49
2021/03/09 07:32:31;;;;;;;31.97;15.63;;;3.70;99.90;;;;;;5050095;28;20510;-49
2021/03/09 07:34:59;;;;;;;30.73;14.80;;;3.90;99.90;;;;;;5049775;28;20456;-50
2021/03/09 07:37:26;;;;;;;29.10;15.23;;;4.20;99.90;;;;;;5050445;28;20880;-50
2021/03/09 07:39:53;;;;;;;29.00;16.30;;;4.50;99.90;;;;;;5050656;28;20476;-49
2021/03/09 07:42:20;;;;;;;32.97;16.30;;;4.70;99.90;;;;;;5050554;28;20826;-49
2021/03/09 07:44:49;;;;;;;30.20;16.60;;;4.10;99.90;;;;;;5050730;28;20884;-49
2021/03/09 07:47:18;;;;;;;28.93;15.77;;;4.50;99.90;;;;;;5050835;28;20937;-50
2021/03/09 07:49:46;;;;;;;31.07;16.13;;;4.60;99.90;;;;;;5050678;28;20479;-50
2021/03/09 07:52:19;;;;;;;31.03;16.63;;;4.20;99.90;;;;;;5050607;28;21015;-49
2021/03/09 07:55:18;;;;;;;30.43;16.63;;;4.50;99.90;;;;;;5041491;28;21699;-49
2021/03/09 07:57:45;;;;;;;30.97;16.90;;;4.40;99.90;;;;;;5030915;28;20495;-49
2021/03/09 08:00:13;;;;;;;30.07;16.43;;;4.60;99.90;;;;;;5030546;28;20477;-49
2021/03/09 08:03:00;;;;;;;26.83;15.10;;;4.90;99.90;;;;;;5030736;28;20449;-50
2021/03/09 08:05:29;;;;;;;27.77;14.80;;;4.50;99.90;;;;;;5024097;28;20506;-49
2021/03/09 08:08:02;;;;;;;28.63;19.10;;;4.80;99.90;;;;;;5027766;28;20795;-50
2021/03/09 08:10:44;;;;;;;30.33;17.93;;;5.00;99.90;;;;;;5040191;28;20697;-50
2021/03/09 08:13:24;;;;;;;26.13;14.90;;;5.30;99.90;;;;;;5036088;28;20461;-50
2021/03/09 08:15:50;;;;;;;27.70;15.80;;;5.60;99.90;;;;;;5041295;28;20832;-50
2021/03/09 08:18:43;;;;;;;26.43;14.87;;;5.90;99.90;;;;;;5041361;28;20474;-49
2021/03/09 08:21:11;;;;;;;25.70;13.20;;;6.30;99.90;;;;;;5049488;28;20828;-49
2021/03/09 08:23:54;;;;;;;19.63;12.77;;;6.30;99.90;;;;;;5033541;28;20475;-49
2021/03/09 08:26:48;;;;;;;32.80;14.17;;;6.80;99.90;;;;;;5033165;28;20806;-49
2021/03/09 08:29:37;;;;;;;24.17;14.50;;;6.20;99.90;;;;;;5003365;28;20484;-49
2021/03/09 08:32:25;;;;;;;20.50;12.80;;;5.60;99.90;;;;;;5043405;28;21000;-49
2021/03/09 08:34:52;;;;;;;23.73;13.80;;;5.60;99.90;;;;;;5048263;28;20971;-50
2021/03/09 08:37:32;;;;;;;21.50;12.90;;;5.90;99.90;;;;;;5049838;28;20439;-49
2021/03/09 08:40:06;;;;;;;19.23;11.43;;;5.90;99.90;;;;;;5053235;28;20472;-50
2021/03/09 08:43:06;;;;;;;22.00;13.13;;;6.70;99.90;;;;;;5045052;28;20449;-50
2021/03/09 08:45:34;;;;;;;20.37;12.13;;;7.00;99.90;;;;;;5053660;28;20799;-50
2021/03/09 08:48:01;;;;;;;20.53;12.70;;;7.00;99.90;;;;;;5053770;28;20439;-50
2021/03/09 08:50:41;;;;;;;17.73;12.07;;;7.40;99.90;;;;;;5053346;28;20457;-49
2021/03/09 08:53:28;;;;;;;18.97;11.83;;;8.00;99.90;;;;;;5053428;28;20462;-50
2021/03/09 08:55:55;;;;;;;20.30;12.23;;;8.30;99.90;;;;;;5053266;28;20463;-50
2021/03/09 08:58:22;;;;;;;22.60;12.50;;;8.40;99.90;;;;;;5053427;28;20517;-49
2021/03/09 09:00:49;;;;;;;24.63;13.47;;;7.90;99.90;;;;;;5053082;28;20941;-50
2021/03/09 09:03:31;;;;;;;24.00;12.07;;;8.10;99.90;;;;;;5053255;28;20474;-50
2021/03/09 09:05:57;;;;;;;21.50;12.90;;;7.50;99.90;;;;;;5053413;28;20538;-49
2021/03/09 09:08:25;;;;;;;21.70;13.03;;;7.10;99.90;;;;;;5053339;28;20688;-49
2021/03/09 09:10:51;;;;;;;21.80;13.60;;;7.30;99.90;;;;;;5053031;28;20470;-50
2021/03/09 09:13:27;;;;;;;20.30;12.60;;;7.90;99.90;;;;;;5053014;28;20975;-49
2021/03/09 09:15:53;;;;;;;20.70;13.10;;;7.60;99.90;;;;;;5053226;28;20446;-50
2021/03/09 09:18:21;;;;;;;20.63;13.20;;;7.40;99.90;;;;;;5053041;28;20471;-50
2021/03/09 09:20:48;;;;;;;21.67;12.83;;;7.70;99.90;;;;;;5052699;28;20807;-50
2021/03/09 09:23:18;;;;;;;18.97;12.20;;;8.40;99.90;;;;;;5053377;28;20444;-49
2021/03/09 09:25:47;;;;;;;23.13;14.17;;;8.10;99.90;;;;;;5052741;28;20458;-50
2021/03/09 09:28:22;;;;;;;22.53;13.40;;;6.60;99.90;;;;;;5052535;28;20466;-49
2021/03/09 09:30:49;;;;;;;20.33;13.67;;;7.00;99.90;;;;;;5052555;28;20500;-49
2021/03/09 09:33:15;;;;;;;25.47;13.87;;;7.20;99.90;;;;;;5052872;28;20963;-50
2021/03/09 09:35:43;;;;;;;23.67;13.67;;;7.40;99.90;;;;;;5052816;28;20454;-49
2021/03/09 09:38:11;;;;;;;23.10;13.63;;;7.10;99.90;;;;;;5052748;28;20451;-49
2021/03/09 09:40:39;;;;;;;22.57;13.97;;;7.10;99.90;;;;;;5052702;28;20443;-50
2021/03/09 09:43:08;;;;;;;22.20;13.43;;;7.40;99.90;;;;;;5052530;28;20461;-49
2021/03/09 09:45:40;;;;;;;21.83;14.43;;;7.90;99.90;;;;;;5052621;28;20913;-49
2021/03/09 09:48:09;;;;;;;21.60;14.17;;;8.40;99.90;;;;;;5052418;28;20454;-49
2021/03/09 09:50:36;;;;;;;24.57;15.33;;;8.20;99.90;;;;;;5052443;28;20457;-49
2021/03/09 09:53:04;;;;;;;23.27;14.03;;;7.70;99.90;;;;;;5052857;28;20444;-50
2021/03/09 09:55:31;;;;;;;22.73;13.80;;;7.50;99.90;;;;;;5052529;28;20448;-49
2021/03/09 09:58:00;;;;;;;21.80;13.50;;;7.00;99.90;;;;;;5052695;28;20470;-50
2021/03/09 10:00:29;;;;;;;24.00;13.57;;;7.00;99.90;;;;;;5052901;28;20447;-50
2021/03/09 10:03:18;;;;;;;24.70;15.27;;;6.70;99.90;;;;;;5052545;28;20443;-50
2021/03/09 10:05:45;;;;;;;22.83;13.83;;;7.00;99.90;;;;;;5052535;28;20517;-50
2021/03/09 10:08:13;;;;;;;23.50;14.33;;;7.40;99.90;;;;;;5052436;28;20478;-50
2021/03/09 10:10:41;;;;;;;21.77;13.93;;;7.70;99.90;;;;;;5052563;28;20454;-49
2021/03/09 10:13:22;;;;;;;21.30;13.43;;;7.40;99.90;;;;;;5052531;28;20459;-50
2021/03/09 10:15:50;;;;;;;25.70;15.17;;;7.20;99.90;;;;;;5052268;28;20477;-49
2021/03/09 10:18:24;;;;;;;25.17;14.67;;;6.80;99.90;;;;;;5051748;28;20475;-50
2021/03/09 10:21:06;;;;;;;23.27;15.03;;;6.90;99.90;;;;;;5052503;28;20450;-49
2021/03/09 10:23:33;;;;;;;23.07;13.50;;;6.20;99.90;;;;;;5052391;28;20453;-50
2021/03/09 10:26:01;;;;;;;23.30;14.00;;;6.20;99.90;;;;;;5052122;28;20455;-50
2021/03/09 10:28:28;;;;;;;27.00;15.23;;;6.40;99.90;;;;;;5047082;28;20839;-49
2021/03/09 10:30:55;;;;;;;26.13;14.93;;;6.10;99.90;;;;;;5052605;28;20451;-50
2021/03/09 10:33:22;;;;;;;25.50;15.23;;;5.60;99.90;;;;;;5051710;28;20448;-50
2021/03/09 10:36:06;;;;;;;24.93;14.53;;;5.40;99.90;;;;;;5052006;28;20493;-49
2021/03/09 10:38:33;;;;;;;25.93;14.33;;;6.00;99.90;;;;;;5051909;28;20560;-50
2021/03/09 10:41:00;;;;;;;24.80;13.90;;;6.40;99.90;;;;;;5051465;28;20968;-49
2021/03/09 10:43:43;;;;;;;24.53;14.30;;;7.10;99.90;;;;;;5051827;28;20451;-49
2021/03/09 10:46:11;;;;;;;26.83;14.93;;;7.50;99.90;;;;;;5052215;28;20451;-49
2021/03/09 10:48:38;;;;;;;25.90;14.63;;;7.70;99.90;;;;;;5052134;28;20493;-50
2021/03/09 10:51:15;;;;;;;23.27;13.60;;;7.90;99.90;;;;;;5052182;28;20549;-49
2021/03/09 10:53:41;;;;;;;25.40;14.50;;;8.00;99.90;;;;;;5051500;28;20446;-49
2021/03/09 10:56:08;;;;;;;25.90;14.40;;;7.90;99.90;;;;;;5051460;28;20462;-49
2021/03/09 10:58:34;;;;;;;23.43;14.73;;;7.90;99.90;;;;;;5051506;28;20553;-49
2021/03/09 11:01:01;;;;;;;25.33;15.23;;;7.10;99.90;;;;;;5051148;28;20463;-49
2021/03/09 11:03:28;;;;;;;23.90;14.83;;;6.90;99.90;;;;;;5051706;28;20506;-49
2021/03/09 11:05:55;;;;;;;24.87;16.47;;;7.00;99.90;;;;;;5051424;28;20457;-49
2021/03/09 11:08:22;;;;;;;28.07;14.83;;;7.10;99.90;;;;;;5051311;28;20853;-49
2021/03/09 11:10:50;;;;;;;28.40;16.83;;;7.30;99.90;;;;;;5051041;28;20449;-49
2021/03/09 11:13:17;;;;;;;27.17;16.00;;;7.00;99.90;;;;;;5051540;28;20459;-48
2021/03/09 11:15:44;;;;;;;23.63;14.67;;;6.90;99.90;;;;;;5051041;28;20457;-50
2021/03/09 11:18:10;;;;;;;27.50;14.57;;;6.60;99.90;;;;;;5050708;28;20448;-49
2021/03/09 11:20:39;;;;;;;26.07;15.57;;;6.70;99.90;;;;;;5050965;28;20451;-49
2021/03/09 11:23:06;;;;;;;27.40;14.57;;;7.00;99.90;;;;;;5050747;28;20497;-49
2021/03/09 11:25:34;;;;;;;21.60;13.43;;;7.00;99.90;;;;;;5050657;28;20456;-50
2021/03/09 11:28:00;;;;;;;24.60;15.23;;;7.10;99.90;;;;;;5050663;28;20448;-50
2021/03/09 11:30:27;;;;;;;25.43;14.70;;;7.20;99.90;;;;;;5051229;28;20825;-49
2021/03/09 11:32:54;;;;;;;25.57;15.37;;;6.90;99.90;;;;;;5051004;28;20940;-49
2021/03/09 11:35:20;;;;;;;26.93;15.33;;;6.50;99.90;;;;;;5050837;28;20476;-49
2021/03/09 11:37:47;;;;;;;28.10;16.50;;;6.20;99.90;;;;;;5050915;28;20509;-49
2021/03/09 11:40:15;;;;;;;29.60;14.83;;;6.40;99.90;;;;;;5050228;28;20487;-49
2021/03/09 11:42:41;;;;;;;24.87;15.50;;;6.60;99.90;;;;;;5050846;28;20571;-49
2021/03/09 11:45:09;;;;;;;28.90;15.87;;;6.50;99.90;;;;;;5050645;28;20475;-48
2021/03/09 11:47:36;;;;;;;27.80;16.17;;;6.70;99.90;;;;;;5050747;28;20452;-48
2021/03/09 11:50:03;;;;;;;28.30;15.80;;;6.60;99.90;;;;;;5050687;28;20940;-49
2021/03/09 11:52:30;;;;;;;26.13;15.53;;;6.90;99.90;;;;;;5050540;28;20490;-49
2021/03/09 11:54:58;;;;;;;27.00;15.83;;;7.20;99.90;;;;;;5050474;28;20451;-49
2021/03/09 11:57:25;;;;;;;27.13;15.47;;;7.20;99.90;;;;;;5050505;28;20964;-49
2021/03/09 11:59:51;;;;;;;28.20;14.77;;;7.10;99.90;;;;;;5085933;22;20494;-50
2021/03/09 12:02:18;;;;;;;28.03;16.07;;;7.00;99.90;;;;;;5069997;28;20505;-51
2021/03/09 12:04:44;;;;;;;27.33;15.20;;;7.30;99.90;;;;;;5070315;28;20455;-51
2021/03/09 12:07:11;;;;;;;27.70;16.00;;;7.10;99.90;;;;;;5070732;28;20447;-51
2021/03/09 12:09:37;;;;;;;27.43;15.87;;;6.30;99.90;;;;;;5070639;28;20492;-51
2021/03/09 12:12:06;;;;;;;26.00;15.83;;;6.20;99.90;;;;;;5070667;28;20495;-51
2021/03/09 12:14:32;;;;;;;25.93;15.57;;;6.50;99.90;;;;;;5069883;28;20504;-51
2021/03/09 12:16:58;;;;;;;24.17;15.43;;;7.00;99.90;;;;;;5070530;28;20455;-51
2021/03/09 12:19:25;;;;;;;25.90;14.50;;;7.40;99.90;;;;;;5070232;28;20467;-51
2021/03/09 12:21:51;;;;;;;28.10;17.10;;;7.60;99.90;;;;;;5070389;28;20455;-51
2021/03/09 12:24:18;;;;;;;24.83;15.90;;;7.30;99.90;;;;;;5070257;28;20449;-51
2021/03/09 12:26:44;;;;;;;26.70;16.03;;;7.70;99.90;;;;;;5070353;28;20934;-51
2021/03/09 12:29:15;;;;;;;25.87;15.33;;;7.70;99.90;;;;;;5070247;28;20467;-51
2021/03/09 12:31:41;;;;;;;28.10;17.20;;;7.90;99.90;;;;;;5070303;28;20476;-50
2021/03/09 12:34:08;;;;;;;28.33;17.00;;;7.90;99.90;;;;;;5070161;28;20447;-51
2021/03/09 12:36:34;;;;;;;27.90;17.30;;;7.60;99.90;;;;;;5070171;28;20446;-51
2021/03/09 12:39:01;;;;;;;26.27;16.27;;;7.10;99.90;;;;;;5070185;28;20466;-51
2021/03/09 12:41:27;;;;;;;25.67;17.00;;;7.40;99.90;;;;;;5070349;28;20443;-51
2021/03/09 12:43:54;;;;;;;28.83;17.13;;;7.70;99.90;;;;;;5070192;28;20451;-51
2021/03/09 12:46:21;;;;;;;28.47;17.27;;;7.70;99.90;;;;;;5069892;28;20456;-51